sensor_id;sensor_type;location;lat;lon;timestamp;pressure;altitude;pressure_sealevel;temperature;humidity
19777;BME280;10047;42.490;26.012;2023-02-28T00:01:23;100037.72;;;9.45;100.00
19777;BME280;10047;42.490;26.012;2023-02-28T00:03:49;100097.09;;;9.75;100.00
19777;BME280;10047;42.490;26.012;2023-02-28T00:06:14;100057.03;;;9.52;100.00
19777;BME280;10047;42.490;26.012;2023-02-28T00:08:40;100095.50;;;9.72;100.00
19777;BME280;10047;42.490;26.012;2023-02-28T00:11:08;100028.16;;;9.19;100.00
19777;BME280;10047;42.490;26.012;2023-02-28T00:13:42;100040.63;;;9.30;100.00
19777;BME280;10047;42.490;26.012;2023-02-28T00:16:14;100046.88;;;9.52;100.00
19777;BME280;10047;42.490;26.012;2023-02-28T00:18:41;100026.06;;;9.38;100.00
19777;BME280;10047;42.490;26.012;2023-02-28T00:21:06;100056.59;;;9.72;100.00
19777;BME280;10047;42.490;26.012;2023-02-28T00:23:32;100029.53;;;9.34;100.00
19777;BME280;10047;42.490;26.012;2023-02-28T00:25:58;100000.31;;;9.18;100.00
19777;BME280;10047;42.490;26.012;2023-02-28T00:28:24;100055.34;;;9.51;100.00
19777;BME280;10047;42.490;26.012;2023-02-28T00:30:49;100062.50;;;9.34;100.00
19777;BME280;10047;42.490;26.012;2023-02-28T00:33:19;100043.75;;;9.41;100.00
19777;BME280;10047;42.490;26.012;2023-02-28T00:35:44;99999.09;;;8.96;100.00
19777;BME280;10047;42.490;26.012;2023-02-28T00:38:14;99996.19;;;9.12;100.00
19777;BME280;10047;42.490;26.012;2023-02-28T00:40:40;100014.03;;;9.46;100.00
19777;BME280;10047;42.490;26.012;2023-02-28T00:43:05;100071.00;;;9.33;100.00
19777;BME280;10047;42.490;26.012;2023-02-28T00:45:31;100010.84;;;9.01;100.00
19777;BME280;10047;42.490;26.012;2023-02-28T00:47:56;99986.00;;;8.75;100.00
19777;BME280;10047;42.490;26.012;2023-02-28T00:50:22;100043.13;;;9.31;100.00
19777;BME280;10047;42.490;26.012;2023-02-28T00:52:47;100057.81;;;9.16;100.00
19777;BME280;10047;42.490;26.012;2023-02-28T00:55:13;99963.75;;;8.88;100.00
19777;BME280;10047;42.490;26.012;2023-02-28T00:57:38;99988.53;;;8.75;100.00
19777;BME280;10047;42.490;26.012;2023-02-28T01:00:04;99961.69;;;8.67;100.00
19777;BME280;10047;42.490;26.012;2023-02-28T01:02:30;100024.25;;;9.05;100.00
19777;BME280;10047;42.490;26.012;2023-02-28T01:04:55;99955.91;;;8.60;100.00
19777;BME280;10047;42.490;26.012;2023-02-28T01:07:22;100007.78;;;8.84;100.00
19777;BME280;10047;42.490;26.012;2023-02-28T01:09:49;99948.22;;;8.65;100.00
19777;BME280;10047;42.490;26.012;2023-02-28T01:12:15;99970.66;;;8.83;100.00
19777;BME280;10047;42.490;26.012;2023-02-28T01:14:40;99936.69;;;8.90;100.00
19777;BME280;10047;42.490;26.012;2023-02-28T01:17:06;99846.03;;;8.64;100.00
19777;BME280;10047;42.490;26.012;2023-02-28T01:19:32;99906.56;;;8.77;100.00
19777;BME280;10047;42.490;26.012;2023-02-28T01:22:04;99902.56;;;8.66;100.00
19777;BME280;10047;42.490;26.012;2023-02-28T01:24:30;99894.03;;;8.70;100.00
19777;BME280;10047;42.490;26.012;2023-02-28T01:26:55;99879.50;;;8.79;100.00
19777;BME280;10047;42.490;26.012;2023-02-28T01:29:21;99816.38;;;8.68;100.00
19777;BME280;10047;42.490;26.012;2023-02-28T01:31:46;99806.16;;;8.34;100.00
19777;BME280;10047;42.490;26.012;2023-02-28T01:34:12;99803.13;;;8.57;100.00
19777;BME280;10047;42.490;26.012;2023-02-28T01:36:37;99806.53;;;8.56;100.00
19777;BME280;10047;42.490;26.012;2023-02-28T01:39:03;99846.81;;;8.66;100.00
19777;BME280;10047;42.490;26.012;2023-02-28T01:41:31;99761.59;;;8.27;100.00
19777;BME280;10047;42.490;26.012;2023-02-28T01:44:04;99726.88;;;8.32;100.00
19777;BME280;10047;42.490;26.012;2023-02-28T01:46:34;99794.47;;;8.67;100.00
19777;BME280;10047;42.490;26.012;2023-02-28T01:49:11;99763.97;;;8.70;100.00
19777;BME280;10047;42.490;26.012;2023-02-28T01:51:49;99692.19;;;8.36;100.00
19777;BME280;10047;42.490;26.012;2023-02-28T01:54:26;99734.16;;;8.80;100.00
19777;BME280;10047;42.490;26.012;2023-02-28T01:57:13;99683.84;;;8.31;100.00
19777;BME280;10047;42.490;26.012;2023-02-28T01:59:48;99743.47;;;8.45;100.00
19777;BME280;10047;42.490;26.012;2023-02-28T02:02:17;99684.47;;;8.40;100.00
19777;BME280;10047;42.490;26.012;2023-02-28T02:04:57;99670.44;;;8.61;100.00
19777;BME280;10047;42.490;26.012;2023-02-28T02:07:24;99650.97;;;8.29;100.00
19777;BME280;10047;42.490;26.012;2023-02-28T02:10:00;99672.53;;;8.79;100.00
19777;BME280;10047;42.490;26.012;2023-02-28T02:12:37;99668.66;;;8.64;100.00
19777;BME280;10047;42.490;26.012;2023-02-28T02:15:42;99654.53;;;8.56;100.00
19777;BME280;10047;42.490;26.012;2023-02-28T02:18:43;99596.13;;;8.60;100.00
19777;BME280;10047;42.490;26.012;2023-02-28T02:21:25;99561.78;;;8.50;100.00
19777;BME280;10047;42.490;26.012;2023-02-28T02:24:06;99563.47;;;8.50;100.00
19777;BME280;10047;42.490;26.012;2023-02-28T02:37:50;99488.72;;;8.37;100.00
19777;BME280;10047;42.490;26.012;2023-02-28T02:40:23;99480.72;;;8.18;100.00
19777;BME280;10047;42.490;26.012;2023-02-28T02:42:57;99451.41;;;8.11;100.00
19777;BME280;10047;42.490;26.012;2023-02-28T02:45:59;99514.81;;;8.39;100.00
19777;BME280;10047;42.490;26.012;2023-02-28T02:48:30;99511.75;;;8.28;100.00
19777;BME280;10047;42.490;26.012;2023-02-28T02:50:59;99508.22;;;8.33;100.00
19777;BME280;10047;42.490;26.012;2023-02-28T02:53:35;99503.13;;;8.35;100.00
19777;BME280;10047;42.490;26.012;2023-02-28T02:56:03;99477.56;;;8.12;100.00
19777;BME280;10047;42.490;26.012;2023-02-28T02:58:37;99516.47;;;8.08;100.00
19777;BME280;10047;42.490;26.012;2023-02-28T03:01:10;99545.31;;;8.01;100.00
19777;BME280;10047;42.490;26.012;2023-02-28T03:03:38;99619.00;;;8.25;100.00
19777;BME280;10047;42.490;26.012;2023-02-28T03:06:04;99604.38;;;8.01;100.00
19777;BME280;10047;42.490;26.012;2023-02-28T03:08:36;99632.41;;;8.29;100.00
19777;BME280;10047;42.490;26.012;2023-02-28T03:11:05;99618.94;;;7.92;100.00
19777;BME280;10047;42.490;26.012;2023-02-28T03:27:59;99843.38;;;8.31;100.00
19777;BME280;10047;42.490;26.012;2023-02-28T03:33:08;99870.19;;;7.98;100.00
19777;BME280;10047;42.490;26.012;2023-02-28T03:35:41;99892.88;;;8.04;100.00
19777;BME280;10047;42.490;26.012;2023-02-28T03:38:28;99981.94;;;8.23;100.00
19777;BME280;10047;42.490;26.012;2023-02-28T03:41:05;99958.78;;;7.97;100.00
19777;BME280;10047;42.490;26.012;2023-02-28T03:43:34;100003.66;;;7.90;100.00
19777;BME280;10047;42.490;26.012;2023-02-28T03:46:06;100099.28;;;8.25;100.00
19777;BME280;10047;42.490;26.012;2023-02-28T03:48:40;100093.84;;;7.93;100.00
19777;BME280;10047;42.490;26.012;2023-02-28T03:51:10;100171.16;;;8.15;100.00
19777;BME280;10047;42.490;26.012;2023-02-28T03:53:41;100235.25;;;8.17;100.00
19777;BME280;10047;42.490;26.012;2023-02-28T03:56:20;100215.38;;;7.91;100.00
19777;BME280;10047;42.490;26.012;2023-02-28T04:02:03;100240.34;;;7.50;100.00
19777;BME280;10047;42.490;26.012;2023-02-28T04:04:29;100312.28;;;7.99;100.00
19777;BME280;10047;42.490;26.012;2023-02-28T04:07:02;100360.47;;;7.92;100.00
19777;BME280;10047;42.490;26.012;2023-02-28T04:09:28;100413.56;;;7.98;100.00
19777;BME280;10047;42.490;26.012;2023-02-28T04:11:53;100472.59;;;8.04;100.00
19777;BME280;10047;42.490;26.012;2023-02-28T04:14:21;100487.91;;;7.87;100.00
19777;BME280;10047;42.490;26.012;2023-02-28T04:16:46;100490.56;;;7.75;100.00
19777;BME280;10047;42.490;26.012;2023-02-28T04:19:13;100548.47;;;8.10;100.00
19777;BME280;10047;42.490;26.012;2023-02-28T04:21:43;100574.09;;;7.71;100.00
19777;BME280;10047;42.490;26.012;2023-02-28T04:24:11;100664.25;;;7.90;100.00
19777;BME280;10047;42.490;26.012;2023-02-28T04:26:41;100661.81;;;7.69;100.00
19777;BME280;10047;42.490;26.012;2023-02-28T04:29:10;100698.00;;;7.89;100.00
19777;BME280;10047;42.490;26.012;2023-02-28T04:31:35;100698.84;;;7.89;100.00
19777;BME280;10047;42.490;26.012;2023-02-28T04:34:01;100647.59;;;7.48;100.00
19777;BME280;10047;42.490;26.012;2023-02-28T04:36:27;100734.34;;;7.76;100.00
19777;BME280;10047;42.490;26.012;2023-02-28T04:38:53;100729.31;;;7.70;100.00
19777;BME280;10047;42.490;26.012;2023-02-28T04:41:19;100694.84;;;7.42;100.00
19777;BME280;10047;42.490;26.012;2023-02-28T04:43:44;100678.81;;;7.43;100.00
19777;BME280;10047;42.490;26.012;2023-02-28T04:46:10;100741.09;;;7.71;100.00
19777;BME280;10047;42.490;26.012;2023-02-28T04:48:38;100719.22;;;7.64;100.00
19777;BME280;10047;42.490;26.012;2023-02-28T04:51:09;100656.09;;;7.38;100.00
19777;BME280;10047;42.490;26.012;2023-02-28T04:53:37;100706.53;;;7.70;100.00
19777;BME280;10047;42.490;26.012;2023-02-28T04:56:03;100613.16;;;7.25;100.00
19777;BME280;10047;42.490;26.012;2023-02-28T04:58:28;100643.28;;;7.68;100.00
19777;BME280;10047;42.490;26.012;2023-02-28T05:01:07;100644.13;;;7.66;100.00
19777;BME280;10047;42.490;26.012;2023-02-28T05:03:41;100647.53;;;7.66;100.00
19777;BME280;10047;42.490;26.012;2023-02-28T05:06:08;100654.25;;;7.67;100.00
19777;BME280;10047;42.490;26.012;2023-02-28T05:08:34;100650.88;;;7.67;100.00
19777;BME280;10047;42.490;26.012;2023-02-28T05:11:00;100595.44;;;7.26;100.00
19777;BME280;10047;42.490;26.012;2023-02-28T05:13:26;100643.22;;;7.74;100.00
19777;BME280;10047;42.490;26.012;2023-02-28T05:15:53;100639.97;;;7.56;100.00
19777;BME280;10047;42.490;26.012;2023-02-28T05:18:19;100651.69;;;7.72;100.00
19777;BME280;10047;42.490;26.012;2023-02-28T05:20:44;100587.00;;;7.30;100.00
19777;BME280;10047;42.490;26.012;2023-02-28T05:23:14;100595.41;;;7.34;100.00
19777;BME280;10047;42.490;26.012;2023-02-28T05:25:40;100577.69;;;7.37;100.00
19777;BME280;10047;42.490;26.012;2023-02-28T05:28:06;100653.31;;;7.82;100.00
19777;BME280;10047;42.490;26.012;2023-02-28T05:30:32;100643.16;;;7.85;100.00
19777;BME280;10047;42.490;26.012;2023-02-28T05:32:58;100647.31;;;8.00;100.00
19777;BME280;10047;42.490;26.012;2023-02-28T05:35:29;100646.56;;;7.82;100.00
19777;BME280;10047;42.490;26.012;2023-02-28T05:37:55;100629.66;;;7.87;100.00
19777;BME280;10047;42.490;26.012;2023-02-28T05:40:20;100601.19;;;7.58;100.00
19777;BME280;10047;42.490;26.012;2023-02-28T05:42:46;100614.59;;;7.69;100.00
19777;BME280;10047;42.490;26.012;2023-02-28T05:45:12;100598.53;;;7.78;100.00
19777;BME280;10047;42.490;26.012;2023-02-28T05:47:37;100565.66;;;7.72;100.00
19777;BME280;10047;42.490;26.012;2023-02-28T05:50:04;100670.00;;;9.09;100.00
19777;BME280;10047;42.490;26.012;2023-02-28T05:52:30;100635.56;;;7.88;100.00
19777;BME280;10047;42.490;26.012;2023-02-28T05:54:56;100708.00;;;8.07;100.00
19777;BME280;10047;42.490;26.012;2023-02-28T05:57:22;100716.53;;;7.94;100.00
19777;BME280;10047;42.490;26.012;2023-02-28T05:59:49;100707.16;;;8.10;100.00
19777;BME280;10047;42.490;26.012;2023-02-28T06:02:19;100640.66;;;7.83;100.00
19777;BME280;10047;42.490;26.012;2023-02-28T06:04:49;100702.16;;;8.02;100.00
19777;BME280;10047;42.490;26.012;2023-02-28T06:07:14;100690.41;;;7.89;100.00
19777;BME280;10047;42.490;26.012;2023-02-28T06:09:40;100692.09;;;7.87;100.00
19777;BME280;10047;42.490;26.012;2023-02-28T06:12:06;100646.72;;;7.58;100.00
19777;BME280;10047;42.490;26.012;2023-02-28T06:14:34;100697.13;;;7.93;100.00
19777;BME280;10047;42.490;26.012;2023-02-28T06:17:00;100630.72;;;7.49;100.00
19777;BME280;10047;42.490;26.012;2023-02-28T06:19:26;100676.09;;;7.79;100.00
19777;BME280;10047;42.490;26.012;2023-02-28T06:21:59;100703.06;;;7.92;100.00
19777;BME280;10047;42.490;26.012;2023-02-28T06:24:29;100694.59;;;7.93;100.00
19777;BME280;10047;42.490;26.012;2023-02-28T06:26:55;100646.69;;;7.61;100.00
19777;BME280;10047;42.490;26.012;2023-02-28T06:29:21;100695.50;;;7.86;100.00
19777;BME280;10047;42.490;26.012;2023-02-28T06:31:47;100638.34;;;7.43;100.00
19777;BME280;10047;42.490;26.012;2023-02-28T06:34:19;100646.75;;;7.48;100.00
19777;BME280;10047;42.490;26.012;2023-02-28T06:36:45;100634.16;;;7.37;100.00
19777;BME280;10047;42.490;26.012;2023-02-28T06:39:10;100703.13;;;7.80;100.00
19777;BME280;10047;42.490;26.012;2023-02-28T06:41:36;100695.50;;;7.86;100.00
19777;BME280;10047;42.490;26.012;2023-02-28T06:44:04;100650.91;;;7.59;100.00
19777;BME280;10047;42.490;26.012;2023-02-28T06:46:31;100643.25;;;7.71;100.00
19777;BME280;10047;42.490;26.012;2023-02-28T06:48:57;100655.88;;;7.74;100.00
19777;BME280;10047;42.490;26.012;2023-02-28T06:51:22;100633.97;;;7.72;100.00
19777;BME280;10047;42.490;26.012;2023-02-28T06:53:49;100691.09;;;8.12;100.00
19777;BME280;10047;42.490;26.012;2023-02-28T06:56:16;100628.06;;;7.76;100.00
19777;BME280;10047;42.490;26.012;2023-02-28T06:58:46;100687.88;;;7.89;100.00
19777;BME280;10047;42.490;26.012;2023-02-28T07:01:13;100644.97;;;7.65;100.00
19777;BME280;10047;42.490;26.012;2023-02-28T07:03:40;100639.75;;;7.94;100.00
19777;BME280;10047;42.490;26.012;2023-02-28T07:06:06;100697.81;;;8.18;100.00
19777;BME280;10047;42.490;26.012;2023-02-28T07:08:32;100704.53;;;8.20;100.00
19777;BME280;10047;42.490;26.012;2023-02-28T07:10:58;100699.59;;;8.04;100.00
19777;BME280;10047;42.490;26.012;2023-02-28T07:13:24;100696.19;;;8.06;100.00
19777;BME280;10047;42.490;26.012;2023-02-28T07:15:54;100702.97;;;8.01;100.00
19777;BME280;10047;42.490;26.012;2023-02-28T07:18:20;100649.03;;;7.93;100.00
19777;BME280;10047;42.490;26.012;2023-02-28T07:20:45;100716.31;;;8.30;100.00
19777;BME280;10047;42.490;26.012;2023-02-28T07:23:10;100665.09;;;7.92;100.00
19777;BME280;10047;42.490;26.012;2023-02-28T07:25:36;100642.34;;;7.86;100.00
19777;BME280;10047;42.490;26.012;2023-02-28T07:28:01;100722.31;;;8.13;100.00
19777;BME280;10047;42.490;26.012;2023-02-28T07:30:27;100724.78;;;8.26;100.00
19777;BME280;10047;42.490;26.012;2023-02-28T07:32:52;100696.94;;;8.23;100.00
19777;BME280;10047;42.490;26.012;2023-02-28T07:35:19;100725.69;;;8.15;100.00
19777;BME280;10047;42.490;26.012;2023-02-28T07:37:45;100630.56;;;7.82;100.00
19777;BME280;10047;42.490;26.012;2023-02-28T07:40:12;100730.63;;;8.39;100.00
19777;BME280;10047;42.490;26.012;2023-02-28T07:42:39;100712.13;;;8.26;100.00
19777;BME280;10047;42.490;26.012;2023-02-28T07:45:05;100736.59;;;8.32;100.00
19777;BME280;10047;42.490;26.012;2023-02-28T07:47:31;100722.22;;;8.32;100.00
19777;BME280;10047;42.490;26.012;2023-02-28T07:49:57;100732.19;;;8.55;100.00
19777;BME280;10047;42.490;26.012;2023-02-28T07:52:23;100673.38;;;8.11;100.00
19777;BME280;10047;42.490;26.012;2023-02-28T07:54:49;100686.88;;;8.13;100.00
19777;BME280;10047;42.490;26.012;2023-02-28T07:57:15;100743.28;;;8.39;100.00
19777;BME280;10047;42.490;26.012;2023-02-28T07:59:41;100744.88;;;8.53;100.00
19777;BME280;10047;42.490;26.012;2023-02-28T08:02:06;100707.88;;;8.31;100.00
19777;BME280;10047;42.490;26.012;2023-02-28T08:04:32;100656.56;;;8.04;100.00
19777;BME280;10047;42.490;26.012;2023-02-28T08:06:57;100762.63;;;8.52;100.00
19777;BME280;10047;42.490;26.012;2023-02-28T08:09:23;100777.78;;;8.59;100.00
19777;BME280;10047;42.490;26.012;2023-02-28T08:11:49;100783.78;;;8.49;100.00
19777;BME280;10047;42.490;26.012;2023-02-28T08:14:15;100749.34;;;8.14;100.00
19777;BME280;10047;42.490;26.012;2023-02-28T08:16:41;100782.91;;;8.49;100.00
19777;BME280;10047;42.490;26.012;2023-02-28T08:19:08;100798.91;;;8.54;100.00
19777;BME280;10047;42.490;26.012;2023-02-28T08:21:34;100745.06;;;8.28;100.00
19777;BME280;10047;42.490;26.012;2023-02-28T08:24:00;100804.94;;;8.41;100.00
19777;BME280;10047;42.490;26.012;2023-02-28T08:26:25;100803.97;;;8.61;100.00
19777;BME280;10047;42.490;26.012;2023-02-28T08:28:51;100799.00;;;8.40;100.00
19777;BME280;10047;42.490;26.012;2023-02-28T08:31:17;100800.59;;;8.56;100.00
19777;BME280;10047;42.490;26.012;2023-02-28T08:33:43;100809.16;;;8.40;100.00
19777;BME280;10047;42.490;26.012;2023-02-28T08:36:10;100792.16;;;8.54;100.00
19777;BME280;10047;42.490;26.012;2023-02-28T08:38:37;100798.94;;;8.52;100.00
19777;BME280;10047;42.490;26.012;2023-02-28T08:41:06;100819.22;;;8.55;100.00
19777;BME280;10047;42.490;26.012;2023-02-28T08:43:33;100818.31;;;8.61;100.00
19777;BME280;10047;42.490;26.012;2023-02-28T08:45:59;100830.22;;;8.51;100.00
19777;BME280;10047;42.490;26.012;2023-02-28T08:48:28;100828.53;;;8.49;100.00
19777;BME280;10047;42.490;26.012;2023-02-28T08:50:56;100825.84;;;8.70;100.00
19777;BME280;10047;42.490;26.012;2023-02-28T08:53:22;100770.28;;;8.44;100.00
19777;BME280;10047;42.490;26.012;2023-02-28T08:56:07;100766.78;;;8.60;100.00
19777;BME280;10047;42.490;26.012;2023-02-28T08:58:34;100762.63;;;8.55;100.00
19777;BME280;10047;42.490;26.012;2023-02-28T09:01:00;100812.22;;;8.86;100.00
19777;BME280;10047;42.490;26.012;2023-02-28T09:03:25;100845.19;;;8.85;100.00
19777;BME280;10047;42.490;26.012;2023-02-28T09:05:54;100753.31;;;8.52;100.00
19777;BME280;10047;42.490;26.012;2023-02-28T09:08:19;100845.19;;;8.85;100.00
19777;BME280;10047;42.490;26.012;2023-02-28T09:10:45;100797.22;;;8.56;100.00
19777;BME280;10047;42.490;26.012;2023-02-28T09:13:10;100845.94;;;8.99;100.00
19777;BME280;10047;42.490;26.012;2023-02-28T09:15:37;100798.69;;;8.86;100.00
19777;BME280;10047;42.490;26.012;2023-02-28T09:18:03;100861.84;;;9.16;100.00
19777;BME280;10047;42.490;26.012;2023-02-28T09:20:29;100873.88;;;8.90;100.00
19777;BME280;10047;42.490;26.012;2023-02-28T09:22:56;100813.97;;;8.77;100.00
19777;BME280;10047;42.490;26.012;2023-02-28T09:25:21;100813.84;;;8.95;100.00
19777;BME280;10047;42.490;26.012;2023-02-28T09:27:47;100834.19;;;8.86;100.00
19777;BME280;10047;42.490;26.012;2023-02-28T09:30:13;100843.44;;;8.90;100.00
19777;BME280;10047;42.490;26.012;2023-02-28T09:32:38;100900.75;;;9.13;100.00
19777;BME280;10047;42.490;26.012;2023-02-28T09:35:04;100850.25;;;8.89;100.00
19777;BME280;10047;42.490;26.012;2023-02-28T09:37:30;100892.25;;;9.22;100.00
19777;BME280;10047;42.490;26.012;2023-02-28T09:39:56;100847.63;;;8.98;100.00
19777;BME280;10047;42.490;26.012;2023-02-28T09:42:28;100886.91;;;9.56;100.00
19777;BME280;10047;42.490;26.012;2023-02-28T09:44:56;100884.38;;;9.52;100.00
19777;BME280;10047;42.490;26.012;2023-02-28T09:49:47;100800.19;;;9.09;100.00
19777;BME280;10047;42.490;26.012;2023-02-28T09:52:17;100859.31;;;9.19;100.00
19777;BME280;10047;42.490;26.012;2023-02-28T09:54:44;100907.25;;;9.50;100.00
19777;BME280;10047;42.490;26.012;2023-02-28T10:00:07;100908.16;;;9.42;100.00
19777;BME280;10047;42.490;26.012;2023-02-28T10:05:52;100896.19;;;9.56;100.00
19777;BME280;10047;42.490;26.012;2023-02-28T10:08:25;100838.06;;;9.27;100.00
19777;BME280;10047;42.490;26.012;2023-02-28T10:11:15;100843.25;;;9.15;100.00
19777;BME280;10047;42.490;26.012;2023-02-28T10:13:52;100843.03;;;9.39;100.00
19777;BME280;10047;42.490;26.012;2023-02-28T10:19:55;100888.63;;;9.50;100.00
19777;BME280;10047;42.490;26.012;2023-02-28T10:22:25;100899.69;;;9.43;100.00
19777;BME280;10047;42.490;26.012;2023-02-28T10:24:55;100841.47;;;9.28;100.00
19777;BME280;10047;42.490;26.012;2023-02-28T10:27:30;100897.66;;;9.80;100.00
19777;BME280;10047;42.490;26.012;2023-02-28T10:30:01;100832.75;;;9.54;100.00
19777;BME280;10047;42.490;26.012;2023-02-28T10:32:32;100858.84;;;9.70;100.00
19777;BME280;10047;42.490;26.012;2023-02-28T10:35:23;100821.63;;;9.66;100.00
19777;BME280;10047;42.490;26.012;2023-02-28T10:37:59;100869.03;;;9.66;100.00
19777;BME280;10047;42.490;26.012;2023-02-28T10:40:34;100815.88;;;9.49;100.00
19777;BME280;10047;42.490;26.012;2023-02-28T10:43:19;100827.41;;;9.79;100.00
19777;BME280;10047;42.490;26.012;2023-02-28T10:48:40;100841.81;;;9.77;100.00
19777;BME280;10047;42.490;26.012;2023-02-28T10:51:13;100849.44;;;9.78;100.00
19777;BME280;10047;42.490;26.012;2023-02-28T10:53:47;100853.75;;;9.70;100.00
19777;BME280;10047;42.490;26.012;2023-02-28T10:56:24;100863.28;;;9.47;100.00
19777;BME280;10047;42.490;26.012;2023-02-28T10:59:00;100872.47;;;9.60;100.00
19777;BME280;10047;42.490;26.012;2023-02-28T11:03:55;100854.94;;;9.34;100.00
19777;BME280;10047;42.490;26.012;2023-02-28T11:06:24;100886.97;;;9.47;100.00
19777;BME280;10047;42.490;26.012;2023-02-28T11:09:34;100881.09;;;9.41;100.00
19777;BME280;10047;42.490;26.012;2023-02-28T11:11:46;100825.56;;;9.08;100.00
19777;BME280;10047;42.490;26.012;2023-02-28T11:14:47;100886.84;;;9.59;100.00
19777;BME280;10047;42.490;26.012;2023-02-28T11:17:20;100827.13;;;9.24;100.00
19777;BME280;10047;42.490;26.012;2023-02-28T11:19:50;100856.72;;;9.22;100.00
19777;BME280;10047;42.490;26.012;2023-02-28T11:22:23;100863.66;;;9.05;100.00
19777;BME280;10047;42.490;26.012;2023-02-28T11:24:55;100903.19;;;9.30;100.00
19777;BME280;10047;42.490;26.012;2023-02-28T11:30:00;100906.63;;;9.23;100.00
19777;BME280;10047;42.490;26.012;2023-02-28T11:32:30;100906.75;;;9.05;100.00
19777;BME280;10047;42.490;26.012;2023-02-28T11:37:36;100841.88;;;8.75;100.00
19777;BME280;10047;42.490;26.012;2023-02-28T11:40:08;100843.56;;;8.79;100.00
19777;BME280;10047;42.490;26.012;2023-02-28T11:48:20;100893.22;;;9.09;100.00
19777;BME280;10047;42.490;26.012;2023-02-28T12:00:57;100841.91;;;8.70;100.00
19777;BME280;10047;42.490;26.012;2023-02-28T12:14:06;100732.22;;;8.53;100.00
19777;BME280;10047;42.490;26.012;2023-02-28T12:19:23;100731.34;;;8.54;100.00
19777;BME280;10047;42.490;26.012;2023-02-28T12:25:02;100715.31;;;8.55;100.00
19777;BME280;10047;42.490;26.012;2023-02-28T12:27:37;100668.91;;;8.47;100.00
19777;BME280;10047;42.490;26.012;2023-02-28T12:30:17;100703.44;;;8.60;100.00
19777;BME280;10047;42.490;26.012;2023-02-28T12:32:48;100675.59;;;8.54;100.00
19777;BME280;10047;42.490;26.012;2023-02-28T12:35:18;100705.88;;;8.71;100.00
19777;BME280;10047;42.490;26.012;2023-02-28T12:37:49;100706.06;;;8.51;100.00
19777;BME280;10047;42.490;26.012;2023-02-28T12:40:20;100637.00;;;8.22;100.00
19777;BME280;10047;42.490;26.012;2023-02-28T12:43:06;100689.09;;;8.58;100.00
19777;BME280;10047;42.490;26.012;2023-02-28T12:45:43;100697.47;;;8.64;100.00
19777;BME280;10047;42.490;26.012;2023-02-28T12:48:25;100647.00;;;8.42;100.00
19777;BME280;10047;42.490;26.012;2023-02-28T12:50:53;100678.09;;;8.60;100.00
19777;BME280;10047;42.490;26.012;2023-02-28T12:58:53;100611.66;;;8.27;100.00
19777;BME280;10047;42.490;26.012;2023-02-28T13:09:52;100665.19;;;8.85;100.00
19777;BME280;10047;42.490;26.012;2023-02-28T13:12:18;100655.19;;;8.71;100.00
19777;BME280;10047;42.490;26.012;2023-02-28T13:14:46;100612.28;;;8.53;100.00
19777;BME280;10047;42.490;26.012;2023-02-28T13:17:14;100628.25;;;8.61;100.00
19777;BME280;10047;42.490;26.012;2023-02-28T13:24:55;100672.91;;;8.72;100.00
19777;BME280;10047;42.490;26.012;2023-02-28T13:27:38;100698.47;;;8.47;100.00
19777;BME280;10047;42.490;26.012;2023-02-28T13:33:35;100682.25;;;8.67;100.00
19777;BME280;10047;42.490;26.012;2023-02-28T13:39:00;100626.94;;;8.13;100.00
19777;BME280;10047;42.490;26.012;2023-02-28T13:46:27;100683.09;;;8.68;100.00
19777;BME280;10047;42.490;26.012;2023-02-28T13:48:52;100670.41;;;8.68;100.00
19777;BME280;10047;42.490;26.012;2023-02-28T13:51:48;100689.94;;;8.57;100.00
19777;BME280;10047;42.490;26.012;2023-02-28T14:05:01;100634.56;;;8.09;100.00
19777;BME280;10047;42.490;26.012;2023-02-28T14:07:37;100595.13;;;7.79;100.00
19777;BME280;10047;42.490;26.012;2023-02-28T14:10:07;100672.31;;;8.42;100.00
19777;BME280;10047;42.490;26.012;2023-02-28T14:18:04;100637.03;;;8.19;100.00
19777;BME280;10047;42.490;26.012;2023-02-28T14:20:32;100690.81;;;8.53;100.00
19777;BME280;10047;42.490;26.012;2023-02-28T14:31:44;100696.88;;;8.32;100.00
19777;BME280;10047;42.490;26.012;2023-02-28T14:34:37;100641.38;;;8.01;100.00
19777;BME280;10047;42.490;26.012;2023-02-28T14:37:05;100689.34;;;8.20;100.00
19777;BME280;10047;42.490;26.012;2023-02-28T14:39:31;100680.97;;;8.14;100.00
19777;BME280;10047;42.490;26.012;2023-02-28T14:41:56;100682.63;;;8.16;100.00
19777;BME280;10047;42.490;26.012;2023-02-28T14:44:28;100680.09;;;8.18;100.00
19777;BME280;10047;42.490;26.012;2023-02-28T14:46:59;100595.22;;;7.68;100.00
19777;BME280;10047;42.490;26.012;2023-02-28T14:49:42;100685.13;;;8.21;100.00
19777;BME280;10047;42.490;26.012;2023-02-28T14:52:22;100681.84;;;8.10;100.00
19777;BME280;10047;42.490;26.012;2023-02-28T14:54:53;100684.38;;;8.10;100.00
19777;BME280;10047;42.490;26.012;2023-02-28T14:57:33;100664.88;;;8.16;100.00
19777;BME280;10047;42.490;26.012;2023-02-28T15:00:06;100616.13;;;7.96;100.00
19777;BME280;10047;42.490;26.012;2023-02-28T15:02:37;100595.16;;;7.76;100.00
19777;BME280;10047;42.490;26.012;2023-02-28T15:07:37;100620.44;;;7.82;100.00
19777;BME280;10047;42.490;26.012;2023-02-28T15:10:24;100669.16;;;8.13;100.00
19777;BME280;10047;42.490;26.012;2023-02-28T15:12:56;100672.44;;;8.22;100.00
19777;BME280;10047;42.490;26.012;2023-02-28T15:18:16;100623.88;;;7.67;100.00
19777;BME280;10047;42.490;26.012;2023-02-28T15:20:45;100634.81;;;7.71;100.00
19777;BME280;10047;42.490;26.012;2023-02-28T15:23:11;100671.75;;;8.01;100.00